sensor_id;sensor_type;location;lat;lon;timestamp;pressure;altitude;pressure_sealevel;temperature;humidity
58757;BME280;44527;47.460;19.016;2023-03-23T00:01:10;100175.84;;;6.34;85.41
58757;BME280;44527;47.460;19.016;2023-03-23T00:04:12;100178.50;;;6.32;86.06
58757;BME280;44527;47.460;19.016;2023-03-23T00:07:14;100182.69;;;6.19;86.63
58757;BME280;44527;47.460;19.016;2023-03-23T00:10:22;100185.59;;;6.13;86.31
58757;BME280;44527;47.460;19.016;2023-03-23T00:13:25;100174.09;;;5.81;88.56
58757;BME280;44527;47.460;19.016;2023-03-23T00:16:28;100182.47;;;5.87;88.35
58757;BME280;44527;47.460;19.016;2023-03-23T00:19:38;100171.56;;;5.98;87.36
58757;BME280;44527;47.460;19.016;2023-03-23T00:22:49;100167.56;;;6.08;86.57
58757;BME280;44527;47.460;19.016;2023-03-23T00:25:51;100177.41;;;5.84;87.77
58757;BME280;44527;47.460;19.016;2023-03-23T00:28:54;100169.59;;;5.67;89.09
58757;BME280;44527;47.460;19.016;2023-03-23T00:31:55;100167.44;;;5.75;88.89
58757;BME280;44527;47.460;19.016;2023-03-23T00:34:57;100167.97;;;5.64;89.37
58757;BME280;44527;47.460;19.016;2023-03-23T00:38:01;100163.13;;;5.57;89.93
58757;BME280;44527;47.460;19.016;2023-03-23T00:41:03;100160.81;;;5.50;90.20
58757;BME280;44527;47.460;19.016;2023-03-23T00:44:04;100159.81;;;5.36;91.50
58757;BME280;44527;47.460;19.016;2023-03-23T00:47:05;100157.47;;;5.48;90.93
58757;BME280;44527;47.460;19.016;2023-03-23T00:50:08;100159.78;;;5.55;90.60
58757;BME280;44527;47.460;19.016;2023-03-23T00:53:10;100158.50;;;5.63;90.79
58757;BME280;44527;47.460;19.016;2023-03-23T00:56:11;100161.25;;;5.78;89.47
58757;BME280;44527;47.460;19.016;2023-03-23T00:59:13;100157.88;;;5.75;89.48
58757;BME280;44527;47.460;19.016;2023-03-23T01:02:14;100152.69;;;5.75;89.56
58757;BME280;44527;47.460;19.016;2023-03-23T01:05:16;100151.22;;;5.87;88.69
58757;BME280;44527;47.460;19.016;2023-03-23T01:08:17;100152.50;;;5.97;87.94
58757;BME280;44527;47.460;19.016;2023-03-23T01:11:19;100145.50;;;6.15;86.57
58757;BME280;44527;47.460;19.016;2023-03-23T01:14:20;100140.06;;;6.03;86.93
58757;BME280;44527;47.460;19.016;2023-03-23T01:17:24;100136.16;;;5.94;87.36
58757;BME280;44527;47.460;19.016;2023-03-23T01:20:25;100149.03;;;5.97;87.23
58757;BME280;44527;47.460;19.016;2023-03-23T01:23:28;100140.25;;;5.81;87.72
58757;BME280;44527;47.460;19.016;2023-03-23T01:26:29;100136.28;;;5.73;88.08
58757;BME280;44527;47.460;19.016;2023-03-23T01:29:30;100132.13;;;5.87;88.33
58757;BME280;44527;47.460;19.016;2023-03-23T01:32:31;100139.13;;;5.86;87.74
58757;BME280;44527;47.460;19.016;2023-03-23T01:35:32;100136.34;;;5.89;87.12
58757;BME280;44527;47.460;19.016;2023-03-23T01:38:33;100133.13;;;5.67;88.32
58757;BME280;44527;47.460;19.016;2023-03-23T01:41:35;100127.38;;;5.78;87.18
58757;BME280;44527;47.460;19.016;2023-03-23T01:47:38;100134.34;;;5.77;87.24
58757;BME280;44527;47.460;19.016;2023-03-23T01:50:58;100130.38;;;5.87;86.58
58757;BME280;44527;47.460;19.016;2023-03-23T01:54:01;100126.62;;;5.75;86.92
58757;BME280;44527;47.460;19.016;2023-03-23T01:57:04;100127.84;;;5.68;86.98
58757;BME280;44527;47.460;19.016;2023-03-23T02:00:06;100128.13;;;5.62;87.16
58757;BME280;44527;47.460;19.016;2023-03-23T02:03:15;100134.47;;;5.57;87.94
58757;BME280;44527;47.460;19.016;2023-03-23T02:06:18;100125.47;;;5.64;87.13
58757;BME280;44527;47.460;19.016;2023-03-23T02:09:21;100126.13;;;5.50;87.61
58757;BME280;44527;47.460;19.016;2023-03-23T02:12:23;100122.03;;;5.63;87.01
58757;BME280;44527;47.460;19.016;2023-03-23T02:15:25;100120.97;;;5.67;87.20
58757;BME280;44527;47.460;19.016;2023-03-23T02:25:03;100139.28;;;5.47;87.25
58757;BME280;44527;47.460;19.016;2023-03-23T02:28:16;100132.72;;;5.40;86.94
58757;BME280;44527;47.460;19.016;2023-03-23T02:34:41;100141.87;;;5.29;86.58
58757;BME280;44527;47.460;19.016;2023-03-23T02:40:45;100139.44;;;5.26;87.25
58757;BME280;44527;47.460;19.016;2023-03-23T02:43:47;100144.34;;;5.14;89.06
58757;BME280;44527;47.460;19.016;2023-03-23T02:46:51;100137.94;;;5.21;89.15
58757;BME280;44527;47.460;19.016;2023-03-23T02:49:54;100139.72;;;4.82;90.84
58757;BME280;44527;47.460;19.016;2023-03-23T02:52:56;100138.66;;;5.05;89.97
58757;BME280;44527;47.460;19.016;2023-03-23T02:55:59;100143.06;;;5.22;88.86
58757;BME280;44527;47.460;19.016;2023-03-23T02:59:03;100136.41;;;4.98;90.24
58757;BME280;44527;47.460;19.016;2023-03-23T03:02:07;100145.13;;;5.16;89.12
58757;BME280;44527;47.460;19.016;2023-03-23T03:08:19;100148.44;;;4.63;90.87
58757;BME280;44527;47.460;19.016;2023-03-23T03:11:24;100140.56;;;4.44;92.42
58757;BME280;44527;47.460;19.016;2023-03-23T03:14:28;100149.13;;;4.27;93.33
58757;BME280;44527;47.460;19.016;2023-03-23T03:17:32;100148.97;;;4.30;93.42
58757;BME280;44527;47.460;19.016;2023-03-23T03:20:38;100144.09;;;4.43;92.62
58757;BME280;44527;47.460;19.016;2023-03-23T03:23:42;100144.63;;;4.10;94.57
58757;BME280;44527;47.460;19.016;2023-03-23T03:26:47;100145.84;;;4.22;94.96
58757;BME280;44527;47.460;19.016;2023-03-23T03:29:51;100150.34;;;4.18;94.68
58757;BME280;44527;47.460;19.016;2023-03-23T03:32:54;100150.47;;;4.15;95.50
58757;BME280;44527;47.460;19.016;2023-03-23T03:35:56;100157.34;;;4.16;95.35
58757;BME280;44527;47.460;19.016;2023-03-23T03:38:59;100155.22;;;4.26;95.26
58757;BME280;44527;47.460;19.016;2023-03-23T03:42:01;100154.34;;;4.46;93.72
58757;BME280;44527;47.460;19.016;2023-03-23T03:45:02;100166.25;;;4.51;93.05
58757;BME280;44527;47.460;19.016;2023-03-23T03:48:04;100157.25;;;4.58;91.84
58757;BME280;44527;47.460;19.016;2023-03-23T03:51:05;100159.53;;;4.46;92.29
58757;BME280;44527;47.460;19.016;2023-03-23T03:54:06;100163.13;;;4.43;93.05
58757;BME280;44527;47.460;19.016;2023-03-23T03:57:07;100162.31;;;4.61;90.89
58757;BME280;44527;47.460;19.016;2023-03-23T04:00:10;100172.37;;;4.69;90.01
58757;BME280;44527;47.460;19.016;2023-03-23T04:03:15;100169.94;;;4.46;91.53
58757;BME280;44527;47.460;19.016;2023-03-23T04:06:17;100172.37;;;4.30;92.38
58757;BME280;44527;47.460;19.016;2023-03-23T04:09:19;100172.41;;;4.28;93.31
58757;BME280;44527;47.460;19.016;2023-03-23T04:12:22;100163.69;;;4.50;91.94
58757;BME280;44527;47.460;19.016;2023-03-23T04:15:27;100170.34;;;4.36;91.53
58757;BME280;44527;47.460;19.016;2023-03-23T04:18:29;100178.53;;;4.27;92.33
58757;BME280;44527;47.460;19.016;2023-03-23T04:21:32;100177.44;;;4.12;93.53
58757;BME280;44527;47.460;19.016;2023-03-23T04:24:35;100175.66;;;4.13;93.37
58757;BME280;44527;47.460;19.016;2023-03-23T04:27:39;100171.59;;;4.07;93.87
58757;BME280;44527;47.460;19.016;2023-03-23T04:30:45;100175.81;;;4.30;92.54
58757;BME280;44527;47.460;19.016;2023-03-23T04:33:50;100176.37;;;4.37;91.39
58757;BME280;44527;47.460;19.016;2023-03-23T04:36:53;100177.38;;;4.14;92.52
58757;BME280;44527;47.460;19.016;2023-03-23T04:39:57;100168.97;;;4.28;92.27
58757;BME280;44527;47.460;19.016;2023-03-23T04:43:02;100174.12;;;4.29;91.53
58757;BME280;44527;47.460;19.016;2023-03-23T04:46:07;100168.59;;;4.37;91.14
58757;BME280;44527;47.460;19.016;2023-03-23T04:49:10;100180.59;;;4.40;91.19
58757;BME280;44527;47.460;19.016;2023-03-23T04:52:12;100178.44;;;4.49;90.03
58757;BME280;44527;47.460;19.016;2023-03-23T04:55:14;100182.38;;;4.39;90.43
58757;BME280;44527;47.460;19.016;2023-03-23T04:58:16;100178.66;;;4.24;91.76
58757;BME280;44527;47.460;19.016;2023-03-23T05:01:19;100177.62;;;4.28;91.52
58757;BME280;44527;47.460;19.016;2023-03-23T05:04:21;100174.12;;;4.29;91.41
58757;BME280;44527;47.460;19.016;2023-03-23T05:07:26;100183.06;;;4.43;90.92
58757;BME280;44527;47.460;19.016;2023-03-23T05:10:28;100179.81;;;4.37;91.21
58757;BME280;44527;47.460;19.016;2023-03-23T05:13:30;100182.53;;;4.55;90.60
58757;BME280;44527;47.460;19.016;2023-03-23T05:16:32;100183.44;;;4.93;89.46
58757;BME280;44527;47.460;19.016;2023-03-23T05:19:36;100192.44;;;5.24;87.34
58757;BME280;44527;47.460;19.016;2023-03-23T05:22:42;100188.91;;;5.44;85.87
58757;BME280;44527;47.460;19.016;2023-03-23T05:25:52;100191.66;;;5.77;84.00
58757;BME280;44527;47.460;19.016;2023-03-23T05:28:57;100188.56;;;6.05;81.64
58757;BME280;44527;47.460;19.016;2023-03-23T05:31:59;100203.41;;;6.55;78.46
58757;BME280;44527;47.460;19.016;2023-03-23T05:35:01;100191.12;;;6.90;77.00
58757;BME280;44527;47.460;19.016;2023-03-23T05:38:05;100190.41;;;7.36;74.92
58757;BME280;44527;47.460;19.016;2023-03-23T05:41:06;100192.28;;;7.96;72.12
58757;BME280;44527;47.460;19.016;2023-03-23T05:44:08;100188.59;;;9.02;67.58
58757;BME280;44527;47.460;19.016;2023-03-23T05:47:11;100185.75;;;10.00;63.62
58757;BME280;44527;47.460;19.016;2023-03-23T05:50:13;100190.50;;;10.48;61.08
58757;BME280;44527;47.460;19.016;2023-03-23T05:53:15;100182.28;;;10.78;60.23
58757;BME280;44527;47.460;19.016;2023-03-23T05:56:17;100176.16;;;11.40;58.32
58757;BME280;44527;47.460;19.016;2023-03-23T05:59:19;100187.19;;;11.93;56.68
58757;BME280;44527;47.460;19.016;2023-03-23T06:02:22;100186.88;;;12.67;54.79
58757;BME280;44527;47.460;19.016;2023-03-23T06:05:25;100176.84;;;12.94;54.11
58757;BME280;44527;47.460;19.016;2023-03-23T06:08:27;100177.09;;;12.69;54.48
58757;BME280;44527;47.460;19.016;2023-03-23T06:11:31;100182.59;;;12.77;54.60
58757;BME280;44527;47.460;19.016;2023-03-23T06:14:33;100179.78;;;12.33;56.22
58757;BME280;44527;47.460;19.016;2023-03-23T06:17:35;100179.53;;;12.25;56.83
58757;BME280;44527;47.460;19.016;2023-03-23T06:20:37;100183.28;;;12.34;57.12
58757;BME280;44527;47.460;19.016;2023-03-23T06:23:39;100190.03;;;13.17;55.46
58757;BME280;44527;47.460;19.016;2023-03-23T06:26:41;100186.81;;;13.68;54.08
58757;BME280;44527;47.460;19.016;2023-03-23T06:29:42;100175.34;;;13.90;53.60
58757;BME280;44527;47.460;19.016;2023-03-23T06:32:44;100176.34;;;14.52;52.15
58757;BME280;44527;47.460;19.016;2023-03-23T06:35:48;100170.28;;;15.61;47.92
58757;BME280;44527;47.460;19.016;2023-03-23T06:38:50;100176.22;;;16.60;44.87
58757;BME280;44527;47.460;19.016;2023-03-23T06:41:54;100177.53;;;17.21;43.43
58757;BME280;44527;47.460;19.016;2023-03-23T06:44:55;100189.06;;;17.48;42.45
58757;BME280;44527;47.460;19.016;2023-03-23T06:48:00;100191.34;;;18.76;40.03
58757;BME280;44527;47.460;19.016;2023-03-23T06:51:02;100196.41;;;19.88;36.91
58757;BME280;44527;47.460;19.016;2023-03-23T06:54:05;100194.41;;;20.56;35.85
58757;BME280;44527;47.460;19.016;2023-03-23T06:57:07;100193.84;;;19.12;37.69
58757;BME280;44527;47.460;19.016;2023-03-23T07:00:11;100196.53;;;19.70;37.79
58757;BME280;44527;47.460;19.016;2023-03-23T07:03:13;100194.53;;;20.71;34.79
58757;BME280;44527;47.460;19.016;2023-03-23T07:06:15;100189.91;;;20.48;35.23
58757;BME280;44527;47.460;19.016;2023-03-23T07:09:18;100194.00;;;20.75;34.57
58757;BME280;44527;47.460;19.016;2023-03-23T07:12:19;100197.53;;;20.76;35.08
58757;BME280;44527;47.460;19.016;2023-03-23T07:15:20;100201.56;;;20.39;35.37
58757;BME280;44527;47.460;19.016;2023-03-23T07:18:23;100199.87;;;20.38;35.20
58757;BME280;44527;47.460;19.016;2023-03-23T07:21:24;100211.84;;;20.83;35.33
58757;BME280;44527;47.460;19.016;2023-03-23T07:24:26;100209.53;;;20.47;35.61
58757;BME280;44527;47.460;19.016;2023-03-23T07:27:29;100216.53;;;19.83;36.44
58757;BME280;44527;47.460;19.016;2023-03-23T07:30:32;100217.56;;;20.06;36.64
58757;BME280;44527;47.460;19.016;2023-03-23T07:33:35;100221.09;;;19.05;37.73
58757;BME280;44527;47.460;19.016;2023-03-23T07:36:37;100218.84;;;18.41;39.81
58757;BME280;44527;47.460;19.016;2023-03-23T07:39:40;100220.37;;;18.43;39.79
58757;BME280;44527;47.460;19.016;2023-03-23T07:42:42;100219.03;;;17.40;41.45
58757;BME280;44527;47.460;19.016;2023-03-23T07:45:54;100220.16;;;17.37;42.11
58757;BME280;44527;47.460;19.016;2023-03-23T07:48:56;100223.34;;;16.66;43.96
58757;BME280;44527;47.460;19.016;2023-03-23T07:51:58;100220.25;;;16.71;43.70
58757;BME280;44527;47.460;19.016;2023-03-23T07:55:00;100221.03;;;16.24;44.94
58757;BME280;44527;47.460;19.016;2023-03-23T07:58:03;100222.84;;;16.34;44.99
58757;BME280;44527;47.460;19.016;2023-03-23T08:01:05;100222.59;;;15.98;46.75
58757;BME280;44527;47.460;19.016;2023-03-23T08:04:08;100222.72;;;15.87;45.97
58757;BME280;44527;47.460;19.016;2023-03-23T08:07:09;100226.34;;;15.85;46.65
58757;BME280;44527;47.460;19.016;2023-03-23T08:10:15;100228.16;;;16.14;46.07
58757;BME280;44527;47.460;19.016;2023-03-23T08:13:23;100220.91;;;16.06;46.66
58757;BME280;44527;47.460;19.016;2023-03-23T08:16:29;100221.19;;;16.33;46.24
58757;BME280;44527;47.460;19.016;2023-03-23T08:19:33;100226.03;;;16.37;45.59
58757;BME280;44527;47.460;19.016;2023-03-23T08:22:39;100223.41;;;16.27;45.84
58757;BME280;44527;47.460;19.016;2023-03-23T08:25:42;100226.19;;;16.36;45.72
58757;BME280;44527;47.460;19.016;2023-03-23T08:28:47;100231.91;;;16.31;46.83
58757;BME280;44527;47.460;19.016;2023-03-23T08:31:49;100236.09;;;16.14;46.66
58757;BME280;44527;47.460;19.016;2023-03-23T08:34:51;100233.19;;;16.07;46.15
58757;BME280;44527;47.460;19.016;2023-03-23T08:37:53;100237.75;;;16.44;45.61
58757;BME280;44527;47.460;19.016;2023-03-23T08:41:00;100230.09;;;16.41;45.80
58757;BME280;44527;47.460;19.016;2023-03-23T08:44:03;100231.41;;;16.65;45.17
58757;BME280;44527;47.460;19.016;2023-03-23T08:47:06;100231.72;;;16.52;45.22
58757;BME280;44527;47.460;19.016;2023-03-23T08:50:09;100234.47;;;16.80;45.97
58757;BME280;44527;47.460;19.016;2023-03-23T08:53:12;100231.84;;;16.70;44.49
58757;BME280;44527;47.460;19.016;2023-03-23T08:56:14;100225.28;;;16.84;43.73
58757;BME280;44527;47.460;19.016;2023-03-23T08:59:16;100228.97;;;17.00;45.32
58757;BME280;44527;47.460;19.016;2023-03-23T09:02:17;100232.00;;;17.15;44.10
58757;BME280;44527;47.460;19.016;2023-03-23T09:05:21;100222.63;;;17.21;43.36
58757;BME280;44527;47.460;19.016;2023-03-23T09:08:29;100224.22;;;17.59;43.91
58757;BME280;44527;47.460;19.016;2023-03-23T09:11:31;100225.16;;;17.40;43.80
58757;BME280;44527;47.460;19.016;2023-03-23T09:14:32;100222.97;;;17.54;42.60
58757;BME280;44527;47.460;19.016;2023-03-23T09:17:36;100216.47;;;17.66;43.09
58757;BME280;44527;47.460;19.016;2023-03-23T09:20:38;100214.03;;;18.00;41.89
58757;BME280;44527;47.460;19.016;2023-03-23T09:23:43;100221.03;;;18.27;41.61
58757;BME280;44527;47.460;19.016;2023-03-23T09:26:46;100218.97;;;18.39;41.77
58757;BME280;44527;47.460;19.016;2023-03-23T09:29:48;100216.94;;;18.33;41.49
58757;BME280;44527;47.460;19.016;2023-03-23T09:32:49;100224.53;;;18.46;40.95
58757;BME280;44527;47.460;19.016;2023-03-23T09:35:51;100213.56;;;18.23;40.98
58757;BME280;44527;47.460;19.016;2023-03-23T09:38:52;100212.03;;;18.20;41.74
58757;BME280;44527;47.460;19.016;2023-03-23T09:54:29;100190.09;;;19.22;38.31
58757;BME280;44527;47.460;19.016;2023-03-23T09:57:43;100193.16;;;19.10;38.97
58757;BME280;44527;47.460;19.016;2023-03-23T10:01:03;100187.94;;;19.26;39.66
58757;BME280;44527;47.460;19.016;2023-03-23T10:04:11;100186.37;;;19.74;38.74
58757;BME280;44527;47.460;19.016;2023-03-23T10:07:17;100180.75;;;19.85;38.17
58757;BME280;44527;47.460;19.016;2023-03-23T10:10:19;100180.59;;;19.87;37.92
58757;BME280;44527;47.460;19.016;2023-03-23T10:16:38;100179.41;;;20.14;38.05
58757;BME280;44527;47.460;19.016;2023-03-23T10:29:16;100160.13;;;20.92;36.50
58757;BME280;44527;47.460;19.016;2023-03-23T10:32:36;100158.31;;;20.84;36.52
58757;BME280;44527;47.460;19.016;2023-03-23T10:38:53;100142.06;;;21.02;36.56
58757;BME280;44527;47.460;19.016;2023-03-23T10:41:59;100142.28;;;20.93;35.94
58757;BME280;44527;47.460;19.016;2023-03-23T10:48:22;100134.38;;;20.68;37.36
58757;BME280;44527;47.460;19.016;2023-03-23T10:51:34;100136.88;;;21.09;37.03
58757;BME280;44527;47.460;19.016;2023-03-23T10:54:38;100127.88;;;20.71;36.10
58757;BME280;44527;47.460;19.016;2023-03-23T10:57:42;100127.09;;;20.29;37.20
58757;BME280;44527;47.460;19.016;2023-03-23T11:00:44;100127.91;;;20.46;36.41
58757;BME280;44527;47.460;19.016;2023-03-23T11:03:48;100125.91;;;20.56;36.04
58757;BME280;44527;47.460;19.016;2023-03-23T11:06:54;100136.03;;;20.69;36.15
58757;BME280;44527;47.460;19.016;2023-03-23T11:10:05;100143.06;;;20.62;35.13
58757;BME280;44527;47.460;19.016;2023-03-23T11:13:11;100135.00;;;20.78;36.86
58757;BME280;44527;47.460;19.016;2023-03-23T11:16:24;100122.66;;;20.85;35.11
58757;BME280;44527;47.460;19.016;2023-03-23T11:19:30;100127.34;;;20.75;34.89
58757;BME280;44527;47.460;19.016;2023-03-23T11:22:33;100111.06;;;20.62;34.90
58757;BME280;44527;47.460;19.016;2023-03-23T11:25:56;100111.59;;;20.97;35.26
58757;BME280;44527;47.460;19.016;2023-03-23T11:29:05;100102.91;;;21.03;34.21
58757;BME280;44527;47.460;19.016;2023-03-23T11:32:10;100097.63;;;21.18;34.67
58757;BME280;44527;47.460;19.016;2023-03-23T11:35:18;100102.72;;;21.04;35.86
58757;BME280;44527;47.460;19.016;2023-03-23T11:38:23;100107.12;;;21.20;34.77
58757;BME280;44527;47.460;19.016;2023-03-23T11:41:29;100102.78;;;21.19;34.49
58757;BME280;44527;47.460;19.016;2023-03-23T11:44:32;100106.50;;;20.79;34.70
58757;BME280;44527;47.460;19.016;2023-03-23T11:47:36;100103.25;;;20.52;35.76
58757;BME280;44527;47.460;19.016;2023-03-23T11:50:47;100100.25;;;20.55;35.29
58757;BME280;44527;47.460;19.016;2023-03-23T11:57:06;100096.75;;;20.38;35.45
58757;BME280;44527;47.460;19.016;2023-03-23T12:00:13;100096.12;;;20.36;36.45
58757;BME280;44527;47.460;19.016;2023-03-23T12:03:15;100093.78;;;20.33;35.55
58757;BME280;44527;47.460;19.016;2023-03-23T12:06:21;100077.81;;;20.25;35.47
58757;BME280;44527;47.460;19.016;2023-03-23T12:09:38;100080.81;;;20.14;36.12
58757;BME280;44527;47.460;19.016;2023-03-23T12:15:50;100072.28;;;20.43;35.60
58757;BME280;44527;47.460;19.016;2023-03-23T12:25:38;100054.69;;;20.73;36.18
58757;BME280;44527;47.460;19.016;2023-03-23T12:35:11;100037.88;;;20.96;35.69
58757;BME280;44527;47.460;19.016;2023-03-23T12:38:31;100036.63;;;20.83;35.35
58757;BME280;44527;47.460;19.016;2023-03-23T12:41:40;100029.72;;;20.97;35.76
58757;BME280;44527;47.460;19.016;2023-03-23T12:44:46;100030.06;;;21.17;34.72
58757;BME280;44527;47.460;19.016;2023-03-23T12:48:01;100011.47;;;21.09;34.35
58757;BME280;44527;47.460;19.016;2023-03-23T12:51:08;100019.69;;;20.68;34.78
58757;BME280;44527;47.460;19.016;2023-03-23T12:57:33;100020.31;;;20.78;35.63
58757;BME280;44527;47.460;19.016;2023-03-23T13:00:56;100021.66;;;20.74;35.33
58757;BME280;44527;47.460;19.016;2023-03-23T13:04:13;100019.19;;;20.73;35.08
58757;BME280;44527;47.460;19.016;2023-03-23T13:07:18;100017.94;;;20.83;35.90
58757;BME280;44527;47.460;19.016;2023-03-23T13:10:25;100018.38;;;20.95;34.63
58757;BME280;44527;47.460;19.016;2023-03-23T13:13:43;100020.19;;;21.03;35.68
58757;BME280;44527;47.460;19.016;2023-03-23T13:26:16;100011.47;;;21.09;34.88
58757;BME280;44527;47.460;19.016;2023-03-23T13:29:22;100004.75;;;21.13;35.36
58757;BME280;44527;47.460;19.016;2023-03-23T13:32:46;100006.06;;;20.94;35.22
58757;BME280;44527;47.460;19.016;2023-03-23T13:35:49;100009.56;;;20.95;34.86
58757;BME280;44527;47.460;19.016;2023-03-23T13:38:51;100007.31;;;21.06;35.36
58757;BME280;44527;47.460;19.016;2023-03-23T13:45:20;100005.16;;;20.79;34.56
58757;BME280;44527;47.460;19.016;2023-03-23T13:48:25;99998.94;;;20.55;35.56
58757;BME280;44527;47.460;19.016;2023-03-23T13:54:40;99984.59;;;20.56;36.42
58757;BME280;44527;47.460;19.016;2023-03-23T14:01:00;99988.72;;;20.67;35.41
58757;BME280;44527;47.460;19.016;2023-03-23T14:04:06;99996.94;;;20.57;35.60
58757;BME280;44527;47.460;19.016;2023-03-23T14:07:11;99984.09;;;20.61;35.55
58757;BME280;44527;47.460;19.016;2023-03-23T14:10:14;99981.44;;;20.53;35.68
58757;BME280;44527;47.460;19.016;2023-03-23T14:13:19;99980.44;;;20.54;36.87
58757;BME280;44527;47.460;19.016;2023-03-23T14:16:22;99975.28;;;20.52;35.76
58757;BME280;44527;47.460;19.016;2023-03-23T14:19:27;99970.28;;;20.49;36.14
58757;BME280;44527;47.460;19.016;2023-03-23T14:22:33;99980.00;;;20.42;36.38
58757;BME280;44527;47.460;19.016;2023-03-23T14:25:34;99985.22;;;20.27;36.67
58757;BME280;44527;47.460;19.016;2023-03-23T14:28:39;99975.94;;;20.15;36.52
58757;BME280;44527;47.460;19.016;2023-03-23T14:31:40;99969.47;;;20.01;37.36
58757;BME280;44527;47.460;19.016;2023-03-23T14:34:41;99965.84;;;19.86;37.98
58757;BME280;44527;47.460;19.016;2023-03-23T14:37:43;99965.72;;;19.79;37.63
58757;BME280;44527;47.460;19.016;2023-03-23T14:40:45;99969.25;;;19.71;38.05
58757;BME280;44527;47.460;19.016;2023-03-23T14:43:46;99965.91;;;19.69;38.26
58757;BME280;44527;47.460;19.016;2023-03-23T14:46:48;99963.22;;;19.61;37.71
58757;BME280;44527;47.460;19.016;2023-03-23T14:49:54;99972.06;;;19.70;38.16
58757;BME280;44527;47.460;19.016;2023-03-23T14:53:00;99976.88;;;19.74;37.96
58757;BME280;44527;47.460;19.016;2023-03-23T14:56:03;99966.53;;;19.80;37.74
58757;BME280;44527;47.460;19.016;2023-03-23T14:59:10;99967.38;;;19.80;38.21
58757;BME280;44527;47.460;19.016;2023-03-23T15:02:12;99958.81;;;20.01;37.27
58757;BME280;44527;47.460;19.016;2023-03-23T15:05:15;99957.31;;;19.98;37.20
58757;BME280;44527;47.460;19.016;2023-03-23T15:11:23;99960.09;;;20.22;36.91
58757;BME280;44527;47.460;19.016;2023-03-23T15:14:30;99955.94;;;20.19;38.12
58757;BME280;44527;47.460;19.016;2023-03-23T15:17:34;99956.59;;;20.21;37.23
58757;BME280;44527;47.460;19.016;2023-03-23T15:23:43;99972.25;;;20.16;36.80
58757;BME280;44527;47.460;19.016;2023-03-23T15:26:44;99967.34;;;19.96;36.96
58757;BME280;44527;47.460;19.016;2023-03-23T15:29:56;99965.38;;;19.82;37.39
58757;BME280;44527;47.460;19.016;2023-03-23T15:33:31;99966.38;;;19.73;38.11
58757;BME280;44527;47.460;19.016;2023-03-23T15:36:31;99963.25;;;19.53;38.58
58757;BME280;44527;47.460;19.016;2023-03-23T15:39:32;99962.56;;;19.43;38.75
58757;BME280;44527;47.460;19.016;2023-03-23T15:42:34;99958.06;;;19.51;39.18
58757;BME280;44527;47.460;19.016;2023-03-23T15:45:35;99963.87;;;19.55;38.92
58757;BME280;44527;47.460;19.016;2023-03-23T15:48:46;99956.28;;;19.44;38.95
58757;BME280;44527;47.460;19.016;2023-03-23T15:51:47;99964.41;;;19.34;39.28
58757;BME280;44527;47.460;19.016;2023-03-23T15:54:49;99957.94;;;19.20;39.12
58757;BME280;44527;47.460;19.016;2023-03-23T15:57:50;99955.44;;;19.11;39.96
58757;BME280;44527;47.460;19.016;2023-03-23T16:00:53;99962.59;;;19.02;39.52
58757;BME280;44527;47.460;19.016;2023-03-23T16:03:58;99965.22;;;18.94;39.80
58757;BME280;44527;47.460;19.016;2023-03-23T16:07:00;99962.91;;;18.82;40.30
58757;BME280;44527;47.460;19.016;2023-03-23T16:10:03;99965.66;;;18.65;41.27
58757;BME280;44527;47.460;19.016;2023-03-23T16:13:05;99963.97;;;18.55;40.75
58757;BME280;44527;47.460;19.016;2023-03-23T16:16:13;99962.09;;;18.40;41.80
58757;BME280;44527;47.460;19.016;2023-03-23T16:19:16;99959.09;;;18.34;41.27
58757;BME280;44527;47.460;19.016;2023-03-23T16:22:19;99969.63;;;18.10;41.97
58757;BME280;44527;47.460;19.016;2023-03-23T16:25:21;99967.94;;;18.09;42.11
58757;BME280;44527;47.460;19.016;2023-03-23T16:28:23;99966.66;;;17.87;42.50
58757;BME280;44527;47.460;19.016;2023-03-23T16:31:25;99961.34;;;17.87;42.32
58757;BME280;44527;47.460;19.016;2023-03-23T16:34:28;99958.88;;;17.85;42.70
58757;BME280;44527;47.460;19.016;2023-03-23T16:37:33;99972.94;;;17.60;43.51
58757;BME280;44527;47.460;19.016;2023-03-23T16:40:36;99972.69;;;17.45;43.64
58757;BME280;44527;47.460;19.016;2023-03-23T16:43:38;99980.81;;;17.26;44.69
58757;BME280;44527;47.460;19.016;2023-03-23T16:46:41;99984.47;;;17.07;44.79
58757;BME280;44527;47.460;19.016;2023-03-23T16:49:43;99983.53;;;16.98;45.16
58757;BME280;44527;47.460;19.016;2023-03-23T16:52:46;99979.22;;;16.79;45.82
58757;BME280;44527;47.460;19.016;2023-03-23T16:55:51;99971.22;;;16.61;46.21
58757;BME280;44527;47.460;19.016;2023-03-23T16:58:53;99966.03;;;16.42;46.94
58757;BME280;44527;47.460;19.016;2023-03-23T17:01:56;99973.50;;;16.28;47.54
58757;BME280;44527;47.460;19.016;2023-03-23T17:05:04;99978.53;;;16.22;47.95
58757;BME280;44527;47.460;19.016;2023-03-23T17:08:06;99981.69;;;16.07;48.02
58757;BME280;44527;47.460;19.016;2023-03-23T17:11:09;99983.38;;;15.99;48.39
58757;BME280;44527;47.460;19.016;2023-03-23T17:14:11;99984.66;;;15.85;49.30
58757;BME280;44527;47.460;19.016;2023-03-23T17:17:13;99983.88;;;15.75;49.42
58757;BME280;44527;47.460;19.016;2023-03-23T17:20:15;99989.00;;;15.67;50.27
58757;BME280;44527;47.460;19.016;2023-03-23T17:23:18;99989.31;;;15.73;50.29
58757;BME280;44527;47.460;19.016;2023-03-23T17:26:20;99992.91;;;15.62;50.61
58757;BME280;44527;47.460;19.016;2023-03-23T17:29:22;99995.88;;;15.50;50.97
58757;BME280;44527;47.460;19.016;2023-03-23T17:32:24;100002.00;;;15.40;51.30
58757;BME280;44527;47.460;19.016;2023-03-23T17:35:27;99992.00;;;15.25;51.80